Time;durP1;ratioP1;P1;durP2;ratioP2;P2;SDS_P1;SDS_P2;PMS_P1;PMS_P2;Temp;Humidity;BMP_temperature;BMP_pressure;BME280_temperature;BME280_humidity;BME280_pressure;Samples;Min_cycle;Max_cycle;Signal;HPM_P1;HPM_P2
2023/06/29 00:02:24;;;;;;;19.67;14.90;;;18.70;99.90;;;;;;5012132;28;20205;-65
2023/06/29 00:04:52;;;;;;;22.17;16.58;;;18.70;99.90;;;;;;5024451;28;20283;-65
2023/06/29 00:07:18;;;;;;;22.80;15.00;;;18.60;99.90;;;;;;5045862;28;20197;-64
2023/06/29 00:09:46;;;;;;;19.42;14.18;;;18.60;99.90;;;;;;5012260;28;20217;-65
2023/06/29 00:12:13;;;;;;;20.52;14.93;;;18.60;99.90;;;;;;5040212;28;20193;-65
2023/06/29 00:14:40;;;;;;;16.90;13.25;;;18.60;99.90;;;;;;5026972;28;20209;-64
2023/06/29 00:17:07;;;;;;;21.40;14.50;;;18.60;99.90;;;;;;5036697;28;20212;-65
2023/06/29 00:19:35;;;;;;;20.77;14.00;;;18.60;99.90;;;;;;5024246;28;20193;-65
2023/06/29 00:22:01;;;;;;;17.70;12.88;;;18.60;99.90;;;;;;5025512;28;20204;-65
2023/06/29 00:24:28;;;;;;;22.48;15.15;;;18.60;99.90;;;;;;5010174;28;20235;-65
2023/06/29 00:26:56;;;;;;;15.50;13.15;;;18.60;99.90;;;;;;5042622;28;21826;-65
2023/06/29 00:29:23;;;;;;;21.48;14.13;;;18.50;99.90;;;;;;5027461;28;20201;-65
2023/06/29 00:31:50;;;;;;;19.10;13.43;;;18.50;99.90;;;;;;5037142;28;20225;-65
2023/06/29 00:34:17;;;;;;;15.90;12.52;;;18.30;99.90;;;;;;5026742;28;20200;-64
2023/06/29 00:36:44;;;;;;;19.67;13.63;;;17.30;99.90;;;;;;5025087;28;20200;-65
2023/06/29 00:39:10;;;;;;;21.65;13.55;;;18.50;99.90;;;;;;5008054;28;20573;-65
2023/06/29 00:41:37;;;;;;;18.40;13.15;;;18.50;99.90;;;;;;5034396;28;20717;-65
2023/06/29 00:44:05;;;;;;;16.80;12.88;;;18.50;99.90;;;;;;5025848;28;20192;-65
2023/06/29 00:46:32;;;;;;;17.60;12.63;;;18.50;99.90;;;;;;5014402;28;20271;-65
2023/06/29 00:48:59;;;;;;;17.42;12.95;;;18.50;99.90;;;;;;5014576;28;20200;-65
2023/06/29 00:51:26;;;;;;;17.42;12.88;;;18.50;99.90;;;;;;5024795;28;20331;-65
2023/06/29 00:53:53;;;;;;;14.85;11.93;;;18.50;99.90;;;;;;5002828;28;20211;-65
2023/06/29 00:56:21;;;;;;;17.27;12.00;;;18.50;99.90;;;;;;5022212;28;20412;-65
2023/06/29 00:58:48;;;;;;;15.80;12.02;;;18.40;99.90;;;;;;5038694;28;20204;-64
2023/06/29 01:01:17;;;;;;;15.55;12.13;;;18.50;99.90;;;;;;5026010;28;20402;-65
2023/06/29 01:03:44;;;;;;;18.85;12.27;;;18.50;99.90;;;;;;5033523;28;20201;-65
2023/06/29 01:06:17;;;;;;;18.17;11.77;;;18.50;99.90;;;;;;5004095;28;20228;-65
2023/06/29 01:08:46;;;;;;;16.48;12.10;;;18.40;99.90;;;;;;5018616;28;20212;-65
2023/06/29 01:11:14;;;;;;;19.27;12.20;;;18.40;99.90;;;;;;5005896;28;20224;-65
2023/06/29 01:13:43;;;;;;;17.95;12.25;;;18.40;99.90;;;;;;5039128;28;20201;-65
2023/06/29 01:16:11;;;;;;;16.85;11.80;;;18.40;99.90;;;;;;5035866;28;20285;-65
2023/06/29 01:18:40;;;;;;;15.13;11.63;;;18.40;99.90;;;;;;5038358;28;20198;-65
2023/06/29 01:21:07;;;;;;;19.25;11.85;;;18.40;99.90;;;;;;5014500;28;20224;-65
2023/06/29 01:23:37;;;;;;;16.15;11.52;;;18.40;99.90;;;;;;5011854;28;20513;-64
2023/06/29 01:26:06;;;;;;;14.98;11.45;;;18.40;99.90;;;;;;4998856;28;20406;-65
2023/06/29 01:28:38;;;;;;;16.77;11.40;;;18.40;99.90;;;;;;5028902;28;20244;-65
2023/06/29 01:31:05;;;;;;;16.20;10.73;;;18.40;99.90;;;;;;5026095;28;21796;-65
2023/06/29 01:33:34;;;;;;;14.15;11.23;;;18.40;99.90;;;;;;5033491;28;20197;-65
2023/06/29 01:36:04;;;;;;;15.60;11.20;;;18.30;99.90;;;;;;5032716;28;20289;-65
2023/06/29 01:38:34;;;;;;;17.63;11.60;;;18.40;99.90;;;;;;5010926;28;20205;-65
2023/06/29 01:41:04;;;;;;;16.33;13.27;;;18.40;99.90;;;;;;5007907;28;20216;-65
2023/06/29 01:43:33;;;;;;;15.15;11.27;;;18.40;99.90;;;;;;5035164;28;20193;-65
2023/06/29 01:46:00;;;;;;;15.57;11.85;;;18.40;99.90;;;;;;5015717;28;20215;-65
2023/06/29 01:48:28;;;;;;;18.33;11.77;;;18.40;99.90;;;;;;5033911;28;20214;-65
2023/06/29 01:50:55;;;;;;;15.52;11.55;;;18.40;99.90;;;;;;5017128;28;20232;-65
2023/06/29 01:53:22;;;;;;;17.58;12.07;;;18.40;99.90;;;;;;5021924;28;20399;-65
2023/06/29 01:55:48;;;;;;;17.98;11.65;;;18.40;99.90;;;;;;5020244;28;20208;-64
2023/06/29 01:58:15;;;;;;;19.55;11.80;;;18.40;99.90;;;;;;5005921;28;20217;-65
2023/06/29 02:00:43;;;;;;;19.73;11.85;;;18.40;99.90;;;;;;5029156;28;20200;-65
2023/06/29 02:03:10;;;;;;;17.30;12.13;;;18.40;99.90;;;;;;5028002;28;20193;-65
2023/06/29 02:05:37;;;;;;;16.60;11.90;;;18.40;99.90;;;;;;5033165;28;20201;-65
2023/06/29 02:08:04;;;;;;;16.35;11.40;;;18.40;99.90;;;;;;5012121;28;20221;-65
2023/06/29 02:10:32;;;;;;;22.42;12.25;;;18.40;99.90;;;;;;5018069;28;20221;-65
2023/06/29 02:12:58;;;;;;;19.05;12.13;;;18.40;99.90;;;;;;5000424;28;20208;-65
2023/06/29 02:15:25;;;;;;;21.45;12.65;;;18.40;99.90;;;;;;5033401;28;20208;-65
2023/06/29 02:17:54;;;;;;;17.45;11.55;;;18.40;99.90;;;;;;5033385;28;20800;-65
2023/06/29 02:20:20;;;;;;;15.30;10.93;;;18.40;99.90;;;;;;5032192;28;20323;-64
2023/06/29 02:22:47;;;;;;;16.35;11.18;;;18.40;99.90;;;;;;5031568;28;20591;-65
2023/06/29 02:25:14;;;;;;;17.55;11.13;;;18.40;99.90;;;;;;5020725;28;20458;-65
2023/06/29 02:27:41;;;;;;;15.05;11.30;;;18.40;99.90;;;;;;4992912;28;20213;-64
2023/06/29 02:30:09;;;;;;;17.33;11.65;;;18.40;99.90;;;;;;5028256;28;20399;-65
2023/06/29 02:32:36;;;;;;;19.75;12.23;;;18.40;99.90;;;;;;5025539;28;20227;-65
2023/06/29 02:35:04;;;;;;;18.92;11.02;;;18.40;99.90;;;;;;5027894;28;20200;-65
2023/06/29 02:37:31;;;;;;;14.93;10.93;;;18.40;99.90;;;;;;5036140;28;20207;-65
2023/06/29 02:39:58;;;;;;;18.38;11.75;;;18.40;99.90;;;;;;5022761;28;20206;-65
2023/06/29 02:42:25;;;;;;;15.77;10.48;;;18.40;99.90;;;;;;5017805;28;20724;-65
2023/06/29 02:44:51;;;;;;;17.30;11.32;;;18.40;99.90;;;;;;5008941;28;20705;-64
2023/06/29 02:47:18;;;;;;;21.45;11.73;;;18.40;99.90;;;;;;5035284;28;20709;-65
2023/06/29 02:49:45;;;;;;;22.63;11.57;;;18.50;99.90;;;;;;5042424;28;20201;-65
2023/06/29 02:52:13;;;;;;;15.80;10.73;;;18.40;99.90;;;;;;5038659;28;20235;-65
2023/06/29 02:54:40;;;;;;;19.02;11.65;;;18.40;99.90;;;;;;5025716;28;20205;-65
2023/06/29 02:57:07;;;;;;;21.27;11.40;;;18.40;99.90;;;;;;5035636;28;20565;-65
2023/06/29 02:59:34;;;;;;;19.05;11.15;;;18.40;99.90;;;;;;5011803;28;20433;-64
2023/06/29 03:02:01;;;;;;;18.33;10.63;;;18.40;99.90;;;;;;5015066;28;20197;-65
2023/06/29 03:04:28;;;;;;;17.52;11.18;;;18.40;99.90;;;;;;5038450;28;20200;-65
2023/06/29 03:06:55;;;;;;;15.43;10.52;;;18.40;99.90;;;;;;5037560;28;20420;-65
2023/06/29 03:09:23;;;;;;;16.75;9.85;;;18.40;99.90;;;;;;5023167;28;23125;-65
2023/06/29 03:11:50;;;;;;;18.33;10.55;;;18.40;99.90;;;;;;5038249;28;20221;-65
2023/06/29 03:14:16;;;;;;;18.67;11.02;;;18.40;99.90;;;;;;5008838;28;20236;-65
2023/06/29 03:16:43;;;;;;;18.35;11.45;;;18.40;99.90;;;;;;5024282;28;20648;-65
2023/06/29 03:19:10;;;;;;;16.33;10.65;;;18.40;99.90;;;;;;5032196;28;20197;-65
2023/06/29 03:21:37;;;;;;;15.07;10.65;;;18.40;99.90;;;;;;5032120;28;20334;-65
2023/06/29 03:24:04;;;;;;;19.67;10.82;;;18.40;99.90;;;;;;5028001;28;20190;-64
2023/06/29 03:26:32;;;;;;;13.90;10.10;;;18.40;99.90;;;;;;5014843;28;20216;-65
2023/06/29 03:28:59;;;;;;;15.57;10.07;;;18.30;99.90;;;;;;5024298;28;20213;-64
2023/06/29 03:31:26;;;;;;;17.35;10.65;;;18.30;99.90;;;;;;5000127;28;20879;-65
2023/06/29 03:33:52;;;;;;;15.52;10.63;;;18.30;99.90;;;;;;5030412;28;20205;-65
2023/06/29 03:36:20;;;;;;;16.33;10.13;;;18.30;99.90;;;;;;5028935;28;20197;-65
2023/06/29 03:38:46;;;;;;;19.33;11.55;;;18.40;99.90;;;;;;5035359;28;20205;-65
2023/06/29 03:41:13;;;;;;;17.50;10.52;;;18.40;99.90;;;;;;5011288;28;20196;-65
2023/06/29 03:43:41;;;;;;;17.20;11.50;;;18.40;99.90;;;;;;5019424;28;20200;-65
2023/06/29 03:46:08;;;;;;;16.08;10.23;;;18.40;99.90;;;;;;4996721;28;20485;-65
2023/06/29 03:48:35;;;;;;;23.95;10.55;;;18.40;99.90;;;;;;5031231;28;20212;-65
2023/06/29 03:51:01;;;;;;;19.77;11.23;;;18.40;99.90;;;;;;5027137;28;20224;-65
2023/06/29 03:53:28;;;;;;;14.65;10.25;;;18.40;99.90;;;;;;5024339;28;20614;-65
2023/06/29 03:55:55;;;;;;;14.18;10.20;;;18.40;99.90;;;;;;5017569;28;20480;-65
2023/06/29 03:58:22;;;;;;;14.27;9.98;;;18.40;99.90;;;;;;5029927;28;20696;-65
2023/06/29 04:00:50;;;;;;;14.35;10.25;;;18.40;99.90;;;;;;5002396;28;20205;-65
2023/06/29 04:03:17;;;;;;;17.30;9.70;;;18.40;99.90;;;;;;5034755;28;20443;-65
2023/06/29 04:05:44;;;;;;;14.90;9.73;;;18.40;99.90;;;;;;5020382;28;20402;-64
2023/06/29 04:08:11;;;;;;;14.20;9.48;;;18.40;99.90;;;;;;5032352;28;20197;-65
2023/06/29 04:10:38;;;;;;;13.05;9.50;;;18.40;99.90;;;;;;5018697;28;20200;-65
2023/06/29 04:13:05;;;;;;;17.02;9.40;;;18.40;99.90;;;;;;5024833;28;20228;-65
2023/06/29 04:15:32;;;;;;;15.68;9.93;;;18.40;99.90;;;;;;5009229;28;20197;-65
2023/06/29 04:18:01;;;;;;;19.70;10.52;;;18.40;99.90;;;;;;5025000;28;20205;-65
2023/06/29 04:20:28;;;;;;;19.20;10.70;;;18.40;99.90;;;;;;5038088;28;20204;-65
2023/06/29 04:22:55;;;;;;;18.02;10.80;;;18.40;99.90;;;;;;5034762;28;20425;-65
2023/06/29 04:25:22;;;;;;;17.65;10.40;;;18.40;99.90;;;;;;5033682;28;20216;-65
2023/06/29 04:27:49;;;;;;;18.83;10.20;;;18.50;99.90;;;;;;5020747;28;20548;-65
2023/06/29 04:30:17;;;;;;;18.63;10.18;;;18.50;99.90;;;;;;5023020;28;20667;-65
2023/06/29 04:32:44;;;;;;;13.32;9.68;;;18.50;99.90;;;;;;5009709;28;20267;-65
2023/06/29 04:35:13;;;;;;;25.35;10.25;;;18.60;99.90;;;;;;5036461;28;20193;-65
2023/06/29 04:37:41;;;;;;;15.15;10.27;;;18.60;99.90;;;;;;5036074;28;20208;-65
2023/06/29 04:40:10;;;;;;;23.67;10.15;;;18.60;99.90;;;;;;5042488;28;20212;-65
2023/06/29 04:42:43;;;;;;;14.75;9.65;;;18.60;99.90;;;;;;5022973;28;20200;-65
2023/06/29 04:45:17;;;;;;;18.90;10.45;;;18.60;99.90;;;;;;5041725;28;20209;-65
2023/06/29 04:47:44;;;;;;;16.42;10.55;;;18.60;99.90;;;;;;5007570;28;20213;-64
2023/06/29 04:50:12;;;;;;;16.67;11.02;;;18.60;99.90;;;;;;5023830;28;20197;-65
2023/06/29 04:52:40;;;;;;;20.30;10.73;;;18.60;99.90;;;;;;5030464;28;20228;-65
2023/06/29 04:55:08;;;;;;;17.08;10.45;;;18.60;99.90;;;;;;5036438;28;20682;-65
2023/06/29 04:57:36;;;;;;;13.07;10.02;;;18.70;99.90;;;;;;5025598;28;20215;-65
2023/06/29 05:00:07;;;;;;;19.83;10.32;;;18.70;99.90;;;;;;5027411;28;20629;-65
2023/06/29 05:02:33;;;;;;;18.33;9.80;;;18.70;99.90;;;;;;5007391;28;20205;-65
2023/06/29 05:05:00;;;;;;;12.65;9.75;;;18.70;99.90;;;;;;5015000;28;20201;-65
2023/06/29 05:07:28;;;;;;;19.98;10.48;;;18.80;99.90;;;;;;5025457;28;20205;-65
2023/06/29 05:09:55;;;;;;;16.67;10.68;;;18.80;99.90;;;;;;5033248;28;20199;-65
2023/06/29 05:12:22;;;;;;;17.38;9.75;;;18.80;99.90;;;;;;5032546;28;20224;-65
2023/06/29 05:14:49;;;;;;;15.60;9.75;;;18.80;99.90;;;;;;5023331;28;20296;-65
2023/06/29 05:17:17;;;;;;;14.82;10.77;;;18.80;99.90;;;;;;4989984;28;20276;-65
2023/06/29 05:19:44;;;;;;;21.98;10.40;;;18.80;99.90;;;;;;5017121;28;20421;-65
2023/06/29 05:22:11;;;;;;;16.42;9.52;;;18.90;99.90;;;;;;5017235;28;20221;-65
2023/06/29 05:24:39;;;;;;;19.15;11.00;;;18.90;99.90;;;;;;5020345;28;20225;-64
2023/06/29 05:27:07;;;;;;;16.58;10.38;;;18.80;99.90;;;;;;5033037;28;20752;-65
2023/06/29 05:29:34;;;;;;;19.02;10.63;;;18.90;99.90;;;;;;5019786;28;20202;-65
2023/06/29 05:32:00;;;;;;;17.10;10.35;;;18.80;99.90;;;;;;5032778;28;20376;-64
2023/06/29 05:34:27;;;;;;;18.23;10.52;;;18.90;99.90;;;;;;4986615;28;20208;-64
2023/06/29 05:36:54;;;;;;;20.52;11.18;;;18.90;99.90;;;;;;5005018;28;20206;-65
2023/06/29 05:39:21;;;;;;;16.00;10.20;;;19.00;99.90;;;;;;5040200;28;20673;-65
2023/06/29 05:41:49;;;;;;;18.38;11.05;;;19.00;99.90;;;;;;5008723;28;20197;-65
2023/06/29 05:44:15;;;;;;;24.45;12.27;;;19.10;99.90;;;;;;5034137;28;20705;-65
2023/06/29 05:46:42;;;;;;;18.10;10.57;;;19.10;99.90;;;;;;5016414;28;20201;-65
2023/06/29 05:49:09;;;;;;;20.52;11.00;;;19.10;99.90;;;;;;4990322;28;20346;-65
2023/06/29 05:51:37;;;;;;;22.98;12.43;;;19.20;99.90;;;;;;5031204;28;20670;-64
2023/06/29 05:54:04;;;;;;;17.55;12.10;;;19.20;99.90;;;;;;5006407;28;20764;-65
2023/06/29 05:56:31;;;;;;;19.83;11.13;;;19.20;99.90;;;;;;5022631;28;20507;-64
2023/06/29 05:58:59;;;;;;;16.60;11.55;;;19.20;99.90;;;;;;5021412;28;20190;-64
2023/06/29 06:01:26;;;;;;;18.30;11.05;;;19.20;99.90;;;;;;5018145;28;21392;-65
2023/06/29 06:03:54;;;;;;;19.73;10.80;;;19.30;99.90;;;;;;5007745;28;20194;-65
2023/06/29 06:06:21;;;;;;;18.48;10.38;;;19.30;99.90;;;;;;5034482;28;20200;-65
2023/06/29 06:08:48;;;;;;;18.30;10.48;;;19.30;99.90;;;;;;5025402;28;20561;-65
2023/06/29 06:11:14;;;;;;;20.15;11.85;;;19.30;99.90;;;;;;5023671;28;20236;-65
2023/06/29 06:13:41;;;;;;;19.40;10.85;;;19.40;99.90;;;;;;5023343;28;20220;-65
2023/06/29 06:16:09;;;;;;;18.88;10.07;;;19.40;99.90;;;;;;5015320;28;20765;-65
2023/06/29 06:18:36;;;;;;;20.10;11.15;;;19.40;99.90;;;;;;5035858;28;20192;-64
2023/06/29 06:21:03;;;;;;;21.30;10.32;;;19.40;99.90;;;;;;4999917;28;20212;-65
2023/06/29 06:23:29;;;;;;;20.88;11.52;;;19.50;99.90;;;;;;5037785;28;20212;-65
2023/06/29 06:25:56;;;;;;;23.17;10.93;;;;;;;;;;5014557;28;20231;-65
2023/06/29 06:28:26;;;;;;;17.33;11.00;;;19.50;99.90;;;;;;5022261;28;20469;-64
2023/06/29 06:30:53;;;;;;;16.83;10.38;;;19.50;99.90;;;;;;5029879;28;20205;-65
2023/06/29 06:33:21;;;;;;;23.33;10.70;;;19.40;99.90;;;;;;5003484;28;20239;-65
2023/06/29 06:35:48;;;;;;;15.85;10.23;;;19.50;99.90;;;;;;5026041;28;20194;-65
2023/06/29 06:38:15;;;;;;;17.75;10.68;;;19.50;99.90;;;;;;5032324;28;20209;-65
2023/06/29 06:40:42;;;;;;;17.88;10.60;;;19.50;99.90;;;;;;5023305;28;20228;-65
2023/06/29 06:43:09;;;;;;;21.42;11.32;;;19.50;99.90;;;;;;5008238;28;21018;-65
2023/06/29 06:45:36;;;;;;;17.88;10.52;;;19.60;99.90;;;;;;4997434;28;20311;-65
2023/06/29 06:48:03;;;;;;;15.90;10.88;;;19.60;99.90;;;;;;4998542;28;20409;-64
2023/06/29 06:50:31;;;;;;;19.05;10.18;;;19.60;99.90;;;;;;4997340;28;20330;-65
2023/06/29 06:52:58;;;;;;;19.92;11.32;;;19.60;99.90;;;;;;4993537;28;20773;-65
2023/06/29 06:55:25;;;;;;;19.58;9.93;;;19.60;99.90;;;;;;5015604;28;20656;-65
2023/06/29 06:57:52;;;;;;;23.73;12.23;;;19.70;99.90;;;;;;5014451;28;20657;-64
2023/06/29 07:00:20;;;;;;;19.77;10.82;;;19.70;99.90;;;;;;5006595;28;20209;-65
2023/06/29 07:02:47;;;;;;;22.55;10.00;;;19.80;99.90;;;;;;5032302;28;20479;-65
2023/06/29 07:05:14;;;;;;;17.63;10.45;;;19.80;99.90;;;;;;4991170;28;20316;-65
2023/06/29 07:07:43;;;;;;;19.67;11.93;;;19.90;99.90;;;;;;4984377;28;20829;-65
2023/06/29 07:10:10;;;;;;;16.15;10.48;;;19.90;99.90;;;;;;5035637;28;20316;-65
2023/06/29 07:12:37;;;;;;;18.35;10.57;;;19.90;99.90;;;;;;5023526;28;20236;-65
2023/06/29 07:15:05;;;;;;;19.77;10.35;;;19.90;99.90;;;;;;5016485;28;20317;-65
2023/06/29 07:17:32;;;;;;;17.83;10.15;;;20.00;99.90;;;;;;5018925;28;20255;-64
2023/06/29 07:19:59;;;;;;;19.02;11.07;;;20.10;99.90;;;;;;5000445;28;20351;-64
2023/06/29 07:22:26;;;;;;;20.45;10.88;;;20.10;99.90;;;;;;5026909;28;20531;-65
2023/06/29 07:24:54;;;;;;;15.80;11.00;;;20.10;99.90;;;;;;4986384;28;20294;-65
2023/06/29 07:27:21;;;;;;;21.52;11.75;;;20.10;99.90;;;;;;5028388;28;20541;-64
2023/06/29 07:29:47;;;;;;;21.55;11.07;;;20.20;99.90;;;;;;5021106;28;20204;-65
2023/06/29 07:32:14;;;;;;;15.65;10.70;;;20.20;99.90;;;;;;5018348;28;20311;-65
2023/06/29 07:34:41;;;;;;;19.90;10.63;;;20.20;99.90;;;;;;5015473;28;20336;-64
2023/06/29 07:37:10;;;;;;;18.90;10.55;;;20.20;99.90;;;;;;4998533;28;20351;-65
2023/06/29 07:39:37;;;;;;;17.77;10.55;;;20.20;99.90;;;;;;4990068;28;20225;-65
2023/06/29 07:42:06;;;;;;;19.30;10.10;;;20.20;99.90;;;;;;5010162;28;20274;-65
2023/06/29 07:44:33;;;;;;;20.92;10.10;;;20.20;99.90;;;;;;5024512;28;20249;-64
2023/06/29 07:46:59;;;;;;;19.25;11.27;;;20.30;99.90;;;;;;5011379;28;20201;-65
2023/06/29 07:49:26;;;;;;;18.67;9.63;;;20.30;99.90;;;;;;5037696;28;20518;-64
2023/06/29 07:51:53;;;;;;;23.65;10.50;;;20.30;99.90;;;;;;5016511;28;21565;-65
2023/06/29 07:54:20;;;;;;;18.75;10.75;;;20.40;99.90;;;;;;4991478;28;20498;-65
2023/06/29 07:56:47;;;;;;;18.50;10.85;;;20.40;99.90;;;;;;5022152;28;20776;-65
2023/06/29 07:59:15;;;;;;;18.25;10.73;;;20.40;99.90;;;;;;5021413;28;20266;-65
2023/06/29 08:01:42;;;;;;;22.70;11.80;;;20.40;99.90;;;;;;5024674;28;20248;-65
2023/06/29 08:04:09;;;;;;;16.08;10.20;;;20.40;99.90;;;;;;5034683;28;20201;-65
2023/06/29 08:06:41;;;;;;;24.83;9.98;;;20.40;99.90;;;;;;5025927;28;20205;-65
2023/06/29 08:09:08;;;;;;;19.38;10.45;;;20.40;99.90;;;;;;5004652;28;20197;-65
2023/06/29 08:11:35;;;;;;;20.15;10.93;;;20.50;99.90;;;;;;5038824;28;20290;-64
2023/06/29 08:14:02;;;;;;;16.55;10.77;;;20.50;99.90;;;;;;5013278;28;20315;-65
2023/06/29 08:16:30;;;;;;;19.08;10.15;;;20.60;99.90;;;;;;5038647;28;20312;-65
2023/06/29 08:18:58;;;;;;;21.48;11.40;;;20.60;99.90;;;;;;5026522;28;20336;-65
2023/06/29 08:21:24;;;;;;;16.88;10.88;;;20.60;99.90;;;;;;5017322;28;20335;-65
2023/06/29 08:23:51;;;;;;;18.17;10.05;;;20.70;99.90;;;;;;5039130;28;20289;-65
2023/06/29 08:26:19;;;;;;;16.10;10.18;;;20.60;99.90;;;;;;5002733;28;20437;-64
2023/06/29 08:28:46;;;;;;;16.98;9.98;;;20.70;99.90;;;;;;5016780;28;20430;-64
2023/06/29 08:31:13;;;;;;;17.48;9.90;;;20.80;99.90;;;;;;5042071;28;20197;-64
2023/06/29 08:33:41;;;;;;;20.27;10.43;;;20.80;99.90;;;;;;5009777;28;20232;-65
2023/06/29 08:36:08;;;;;;;15.77;9.68;;;20.80;99.90;;;;;;5037831;28;20826;-65
2023/06/29 08:38:34;;;;;;;15.27;9.85;;;20.80;99.90;;;;;;5022336;28;20270;-64
2023/06/29 08:41:05;;;;;;;21.20;9.93;;;20.80;99.90;;;;;;5008182;28;20205;-64
2023/06/29 08:43:32;;;;;;;20.23;10.70;;;20.80;99.90;;;;;;5030426;28;20577;-65
2023/06/29 08:45:58;;;;;;;17.95;9.68;;;20.80;99.90;;;;;;5030323;28;20323;-64
2023/06/29 08:48:26;;;;;;;17.88;10.60;;;20.80;99.90;;;;;;5017117;28;20201;-65
2023/06/29 08:50:59;;;;;;;23.77;10.65;;;20.80;99.90;;;;;;5039288;28;20597;-65
2023/06/29 08:53:26;;;;;;;15.68;10.10;;;20.80;99.90;;;;;;5023271;28;20316;-65
2023/06/29 08:55:54;;;;;;;15.52;9.95;;;20.90;99.90;;;;;;5040899;28;20692;-65
2023/06/29 08:58:22;;;;;;;16.70;9.75;;;20.90;99.90;;;;;;4997646;28;20213;-65
2023/06/29 09:00:50;;;;;;;20.02;11.43;;;20.90;99.90;;;;;;5028007;28;20833;-65
2023/06/29 09:03:17;;;;;;;23.17;11.43;;;20.90;99.90;;;;;;5035090;28;20423;-65
2023/06/29 09:05:46;;;;;;;20.40;10.90;;;20.90;99.90;;;;;;5019904;28;20333;-65
2023/06/29 09:08:14;;;;;;;16.63;10.38;;;20.90;99.90;;;;;;5017626;28;20232;-65
2023/06/29 09:10:41;;;;;;;17.05;9.52;;;20.90;99.90;;;;;;5021658;28;20315;-65
2023/06/29 09:13:09;;;;;;;16.08;10.55;;;20.90;99.90;;;;;;5002175;28;20297;-65
2023/06/29 09:15:38;;;;;;;17.67;10.40;;;20.90;99.90;;;;;;5023870;28;20246;-65
2023/06/29 09:18:05;;;;;;;18.92;10.50;;;20.90;99.90;;;;;;5019082;28;20515;-65
2023/06/29 09:20:35;;;;;;;17.67;9.88;;;20.90;99.90;;;;;;5010379;28;20208;-65
2023/06/29 09:23:03;;;;;;;16.88;9.90;;;21.00;99.90;;;;;;5014182;28;20769;-65
2023/06/29 09:25:36;;;;;;;18.35;10.05;;;21.00;99.90;;;;;;5038787;28;20237;-65
2023/06/29 09:28:05;;;;;;;16.05;9.85;;;21.00;99.90;;;;;;4994839;28;20988;-65
2023/06/29 09:30:37;;;;;;;18.88;10.02;;;21.00;99.90;;;;;;5021245;28;20286;-65
2023/06/29 09:33:08;;;;;;;13.75;9.07;;;21.10;99.90;;;;;;5023635;28;20503;-65
2023/06/29 09:35:39;;;;;;;14.27;9.10;;;21.10;99.90;;;;;;5026249;28;20212;-65
2023/06/29 09:38:06;;;;;;;16.17;9.52;;;21.20;99.90;;;;;;5037671;28;20193;-65
2023/06/29 09:40:47;;;;;;;16.05;9.23;;;21.20;99.90;;;;;;5024255;28;20227;-65
2023/06/29 09:43:16;;;;;;;18.02;10.45;;;21.30;99.90;;;;;;5015289;28;21010;-65
2023/06/29 09:45:43;;;;;;;12.60;8.75;;;21.30;99.90;;;;;;4997421;28;20213;-65
2023/06/29 09:48:12;;;;;;;14.80;9.68;;;21.40;99.90;;;;;;5029055;28;20355;-65
2023/06/29 09:50:40;;;;;;;19.20;9.45;;;21.50;99.90;;;;;;5012112;28;20580;-65
2023/06/29 09:53:08;;;;;;;14.30;9.75;;;21.60;99.90;;;;;;5031485;28;20289;-65
2023/06/29 09:55:38;;;;;;;17.50;8.82;;;21.60;99.90;;;;;;5026797;28;20677;-65
2023/06/29 09:58:06;;;;;;;17.55;10.10;;;21.60;99.90;;;;;;5025636;28;20851;-65
2023/06/29 10:00:34;;;;;;;18.02;10.77;;;21.90;99.90;;;;;;4990964;28;20841;-65
2023/06/29 10:03:01;;;;;;;17.13;9.85;;;21.70;99.90;;;;;;5027523;28;20314;-65
2023/06/29 10:05:30;;;;;;;13.80;9.35;;;21.90;99.90;;;;;;5016566;28;20497;-65
2023/06/29 10:07:58;;;;;;;18.60;9.73;;;21.80;99.90;;;;;;5034661;28;20732;-65
2023/06/29 10:10:27;;;;;;;18.15;10.60;;;21.90;99.90;;;;;;5014815;28;20212;-65
2023/06/29 10:12:58;;;;;;;17.20;9.32;;;21.80;99.90;;;;;;5031610;28;20217;-65
2023/06/29 10:15:27;;;;;;;19.58;11.77;;;21.90;99.90;;;;;;5000747;28;20796;-65
2023/06/29 10:18:00;;;;;;;17.55;11.45;;;21.90;99.90;;;;;;5015782;28;20257;-65
2023/06/29 10:20:31;;;;;;;24.17;11.93;;;21.80;99.90;;;;;;5014820;28;20802;-65
2023/06/29 10:23:00;;;;;;;24.25;11.35;;;21.80;99.90;;;;;;5027389;28;20367;-65
2023/06/29 10:25:30;;;;;;;15.05;10.80;;;21.80;99.90;;;;;;5018166;28;20357;-65
2023/06/29 10:27:58;;;;;;;15.70;10.82;;;21.80;99.90;;;;;;5016698;28;20209;-65
2023/06/29 10:30:26;;;;;;;20.98;10.45;;;21.80;99.90;;;;;;4990794;28;20394;-65
2023/06/29 10:32:53;;;;;;;21.70;11.55;;;21.80;99.90;;;;;;5025241;28;20292;-65
2023/06/29 10:35:24;;;;;;;20.15;12.07;;;21.80;99.90;;;;;;5018900;28;20221;-65
2023/06/29 10:37:51;;;;;;;19.63;11.63;;;21.80;99.90;;;;;;5015361;28;20225;-65
2023/06/29 10:40:20;;;;;;;22.15;10.88;;;21.80;99.90;;;;;;5040424;28;20332;-65
2023/06/29 10:42:57;;;;;;;15.52;10.65;;;21.80;99.90;;;;;;5016813;28;20205;-65
2023/06/29 10:45:32;;;;;;;15.40;10.15;;;21.70;99.90;;;;;;5035952;28;20456;-65
2023/06/29 10:48:02;;;;;;;16.42;10.20;;;21.70;99.90;;;;;;5008284;28;20218;-65
2023/06/29 10:50:29;;;;;;;15.80;9.85;;;21.70;99.90;;;;;;5001906;28;20559;-65
2023/06/29 10:52:59;;;;;;;18.02;11.25;;;21.70;99.90;;;;;;5030940;28;20787;-65
2023/06/29 10:55:28;;;;;;;18.60;12.10;;;21.70;99.90;;;;;;5016699;28;20220;-65
2023/06/29 10:57:56;;;;;;;24.60;12.27;;;21.70;99.90;;;;;;5024747;28;20197;-65
2023/06/29 11:00:26;;;;;;;21.05;12.48;;;21.70;99.90;;;;;;5021635;28;20444;-65
2023/06/29 11:02:53;;;;;;;19.27;11.02;;;21.70;99.90;;;;;;5001181;28;20216;-65
2023/06/29 11:05:21;;;;;;;18.55;12.30;;;21.70;99.90;;;;;;5009540;28;20543;-65
2023/06/29 11:07:50;;;;;;;17.00;12.02;;;21.70;99.90;;;;;;5027149;28;20261;-65
2023/06/29 11:10:18;;;;;;;17.52;11.23;;;21.70;99.90;;;;;;5010757;28;21038;-65
2023/06/29 11:12:45;;;;;;;20.52;10.15;;;21.70;99.90;;;;;;5036806;28;20819;-65
2023/06/29 11:15:14;;;;;;;21.67;11.85;;;21.70;99.90;;;;;;5000252;28;20920;-65
2023/06/29 11:17:43;;;;;;;19.70;11.57;;;21.50;99.90;;;;;;5034698;28;20344;-65
2023/06/29 11:20:13;;;;;;;21.30;11.88;;;21.70;99.90;;;;;;4990385;28;20829;-65
2023/06/29 11:22:40;;;;;;;20.67;11.90;;;21.60;99.90;;;;;;5024433;28;20204;-65
2023/06/29 11:25:08;;;;;;;28.45;13.05;;;21.60;99.90;;;;;;5036446;28;20225;-65
2023/06/29 11:27:35;;;;;;;24.88;12.20;;;21.60;99.90;;;;;;5045754;28;20232;-65
2023/06/29 11:30:05;;;;;;;24.17;12.40;;;21.70;99.90;;;;;;5017420;28;20202;-65
2023/06/29 11:32:32;;;;;;;17.92;11.77;;;21.70;99.90;;;;;;5026962;28;20201;-65
2023/06/29 11:35:02;;;;;;;19.55;12.50;;;21.70;99.90;;;;;;5012175;28;20331;-65
2023/06/29 11:37:29;;;;;;;21.20;11.38;;;21.70;99.90;;;;;;5018016;28;20569;-65
2023/06/29 11:39:56;;;;;;;23.35;12.40;;;21.60;99.90;;;;;;5037398;28;20340;-65
2023/06/29 11:42:24;;;;;;;17.58;11.27;;;21.60;99.90;;;;;;5035063;28;20530;-65
2023/06/29 11:45:00;;;;;;;16.20;10.68;;;21.60;99.90;;;;;;5023694;28;20209;-65
2023/06/29 11:47:27;;;;;;;27.50;11.15;;;21.60;99.90;;;;;;5035525;28;20428;-65
2023/06/29 11:49:55;;;;;;;16.77;11.10;;;21.70;99.90;;;;;;4991735;28;20257;-65
2023/06/29 11:52:23;;;;;;;19.88;11.05;;;21.10;99.90;;;;;;5011558;28;20746;-65
2023/06/29 11:54:50;;;;;;;23.08;12.40;;;21.60;99.90;;;;;;5025891;28;20228;-65
2023/06/29 11:57:18;;;;;;;19.08;11.00;;;21.60;99.90;;;;;;5033238;28;20205;-65
2023/06/29 11:59:46;;;;;;;19.10;11.45;;;21.60;99.90;;;;;;5021641;28;20524;-65
2023/06/29 12:02:14;;;;;;;18.20;11.38;;;21.60;99.90;;;;;;5024950;28;20205;-65
2023/06/29 12:04:54;;;;;;;20.98;12.15;;;21.70;99.90;;;;;;5010220;28;20210;-65
2023/06/29 12:07:37;;;;;;;18.80;11.73;;;21.70;99.90;;;;;;5012638;28;20348;-65
2023/06/29 12:10:06;;;;;;;17.48;11.27;;;21.70;99.90;;;;;;5003730;28;20231;-65
2023/06/29 12:12:37;;;;;;;16.35;11.10;;;21.70;99.90;;;;;;5032423;28;20221;-65
2023/06/29 12:15:17;;;;;;;19.27;11.27;;;20.60;99.90;;;;;;5008306;28;20314;-65
2023/06/29 12:17:45;;;;;;;19.90;11.32;;;21.80;99.90;;;;;;5027801;28;20810;-65
2023/06/29 12:20:14;;;;;;;20.88;10.60;;;21.90;99.90;;;;;;5008607;28;20801;-65
2023/06/29 12:22:43;;;;;;;18.15;10.95;;;22.00;99.90;;;;;;5020141;28;20221;-65
2023/06/29 12:25:15;;;;;;;20.35;12.35;;;22.00;99.90;;;;;;5023234;28;20237;-65
2023/06/29 12:27:43;;;;;;;22.05;11.02;;;22.10;99.90;;;;;;5014025;28;20417;-65
2023/06/29 12:30:14;;;;;;;22.23;12.13;;;22.90;99.90;;;;;;4999802;28;21055;-65
2023/06/29 12:32:41;;;;;;;18.15;11.75;;;22.30;99.90;;;;;;5023203;28;20220;-65